createdAt,value
2016-07-16T00:00:14.665Z,1017.94
2016-07-16T00:01:14.658Z,1017.92
2016-07-16T00:02:14.638Z,1017.96
2016-07-16T00:03:14.622Z,1017.93
2016-07-16T00:04:14.620Z,1017.93
2016-07-16T00:05:14.600Z,1017.93
2016-07-16T00:06:14.590Z,1017.92
2016-07-16T00:07:14.575Z,1017.91
2016-07-16T00:08:14.561Z,1017.89
2016-07-16T00:09:14.542Z,1017.89
2016-07-16T00:10:14.530Z,1017.87
2016-07-16T00:11:14.518Z,1017.88
2016-07-16T00:12:14.500Z,1017.88
2016-07-16T00:13:14.487Z,1017.88
2016-07-16T00:14:14.478Z,1017.86
2016-07-16T00:15:14.458Z,1017.85
2016-07-16T00:16:14.450Z,1017.84
2016-07-16T00:17:14.430Z,1017.83
2016-07-16T00:18:14.419Z,1017.84
2016-07-16T00:19:14.403Z,1017.83
2016-07-16T00:20:14.391Z,1017.83
2016-07-16T00:21:14.377Z,1017.81
2016-07-16T00:22:14.370Z,1017.81
2016-07-16T00:23:14.348Z,1017.84
2016-07-16T00:24:14.335Z,1017.78
2016-07-16T00:25:14.319Z,1017.77
2016-07-16T00:26:14.310Z,1017.73
2016-07-16T00:27:14.290Z,1017.7
2016-07-16T00:28:14.280Z,1017.7
2016-07-16T00:29:14.272Z,1017.67
2016-07-16T00:30:14.257Z,1017.71
2016-07-16T00:31:14.238Z,1017.71
2016-07-16T00:32:14.218Z,1017.69
2016-07-16T00:33:14.209Z,1017.68
2016-07-16T00:34:14.193Z,1017.69
2016-07-16T00:35:14.179Z,1017.68
2016-07-16T00:36:14.164Z,1017.69
2016-07-16T00:37:14.155Z,1017.7
2016-07-16T00:38:14.138Z,1017.69
2016-07-16T00:39:14.121Z,1017.69
2016-07-16T00:40:14.107Z,1017.68
2016-07-16T00:41:14.093Z,1017.72
2016-07-16T00:42:14.081Z,1017.72
2016-07-16T00:43:14.070Z,1017.69
2016-07-16T00:44:14.062Z,1017.73
2016-07-16T00:45:14.041Z,1017.74
2016-07-16T00:46:14.023Z,1017.73
2016-07-16T00:47:14.009Z,1017.73
2016-07-16T00:48:13.996Z,1017.73
2016-07-16T00:49:13.990Z,1017.69
2016-07-16T00:50:13.967Z,1017.7
2016-07-16T00:51:13.955Z,1017.7
2016-07-16T00:52:13.939Z,1017.72
2016-07-16T00:53:13.927Z,1017.69
2016-07-16T00:54:13.909Z,1017.69
2016-07-16T00:55:13.900Z,1017.7
2016-07-16T00:56:13.888Z,1017.68
2016-07-16T00:57:13.871Z,1017.68
2016-07-16T00:58:13.857Z,1017.66
2016-07-16T00:59:13.840Z,1017.68
2016-07-16T01:00:13.832Z,1017.67
2016-07-16T01:01:13.811Z,1017.68
2016-07-16T01:02:13.810Z,1017.69
2016-07-16T01:03:13.790Z,1017.72
2016-07-16T01:04:13.772Z,1017.68
2016-07-16T01:05:13.761Z,1017.7
2016-07-16T01:06:13.739Z,1017.75
2016-07-16T01:07:13.731Z,1017.7
2016-07-16T01:08:13.715Z,1017.74
2016-07-16T01:09:13.699Z,1017.72
2016-07-16T01:10:13.684Z,1017.73
2016-07-16T01:11:13.676Z,1017.77
2016-07-16T01:12:13.659Z,1017.73
2016-07-16T01:13:13.639Z,1017.69
2016-07-16T01:14:13.631Z,1017.76
2016-07-16T01:15:13.622Z,1017.72
2016-07-16T01:16:13.600Z,1017.73
2016-07-16T01:17:13.589Z,1017.73
2016-07-16T01:18:13.570Z,1017.72
2016-07-16T01:19:13.558Z,1017.71
2016-07-16T01:20:13.542Z,1017.73
2016-07-16T01:21:13.528Z,1017.75
2016-07-16T01:22:13.521Z,1017.74
2016-07-16T01:23:13.500Z,1017.75
2016-07-16T01:24:13.492Z,1017.73
2016-07-16T01:25:13.469Z,1017.74
2016-07-16T01:26:13.458Z,1017.72
2016-07-16T01:27:13.448Z,1017.75
2016-07-16T01:28:13.426Z,1017.75
2016-07-16T01:29:13.414Z,1017.72
2016-07-16T01:30:13.401Z,1017.71
2016-07-16T01:31:13.384Z,1017.71
2016-07-16T01:32:13.371Z,1017.7
2016-07-16T01:33:13.360Z,1017.71
2016-07-16T01:34:13.341Z,1017.69
2016-07-16T01:35:13.327Z,1017.71
2016-07-16T01:36:13.315Z,1017.68
2016-07-16T01:37:13.300Z,1017.7
2016-07-16T01:38:13.289Z,1017.67
2016-07-16T01:39:13.270Z,1017.68
2016-07-16T01:40:13.261Z,1017.66
2016-07-16T01:41:13.242Z,1017.66
2016-07-16T01:42:13.231Z,1017.7
2016-07-16T01:43:13.222Z,1017.7
2016-07-16T01:44:13.208Z,1017.69
2016-07-16T01:45:13.183Z,1017.68
2016-07-16T01:46:13.168Z,1017.69
2016-07-16T01:47:13.161Z,1017.7
2016-07-16T01:48:13.150Z,1017.68
2016-07-16T01:49:13.125Z,1017.68
2016-07-16T01:50:13.110Z,1017.68
2016-07-16T01:51:13.095Z,1017.62
2016-07-16T01:52:13.080Z,1017.64
2016-07-16T01:53:13.071Z,1017.66
2016-07-16T01:54:13.054Z,1017.65
2016-07-16T01:55:13.040Z,1017.63
2016-07-16T01:56:13.022Z,1017.64
2016-07-16T01:57:13.008Z,1017.6
2016-07-16T01:58:13.001Z,1017.59
2016-07-16T01:59:12.981Z,1017.58
2016-07-16T02:00:12.969Z,1017.57
2016-07-16T02:01:12.948Z,1017.56
2016-07-16T02:02:12.940Z,1017.58
2016-07-16T02:03:12.927Z,1017.54
2016-07-16T02:04:12.909Z,1017.57
2016-07-16T02:05:12.897Z,1017.55
2016-07-16T02:06:12.877Z,1017.56
2016-07-16T02:07:12.868Z,1017.61
2016-07-16T02:08:12.849Z,1017.62
2016-07-16T02:09:12.838Z,1017.62
2016-07-16T02:10:12.817Z,1017.64
2016-07-16T02:11:12.807Z,1017.66
2016-07-16T02:12:12.790Z,1017.66
2016-07-16T02:13:12.774Z,1017.65
2016-07-16T02:14:12.762Z,1017.7
2016-07-16T02:15:12.745Z,1017.67
2016-07-16T02:16:12.734Z,1017.69
2016-07-16T02:17:12.720Z,1017.69
2016-07-16T02:18:12.703Z,1017.71
2016-07-16T02:19:12.691Z,1017.7
2016-07-16T02:20:12.675Z,1017.74
2016-07-16T02:21:12.657Z,1017.73
2016-07-16T02:22:12.646Z,1017.7
2016-07-16T02:23:12.628Z,1017.69
2016-07-16T02:24:12.617Z,1017.68
2016-07-16T02:25:12.600Z,1017.66
2016-07-16T02:26:12.586Z,1017.67
2016-07-16T02:27:12.570Z,1017.65
2016-07-16T02:28:12.553Z,1017.64
2016-07-16T02:29:12.540Z,1017.59
2016-07-16T02:30:12.530Z,1017.58
2016-07-16T02:31:12.512Z,1017.56
2016-07-16T02:32:12.499Z,1017.53
2016-07-16T02:33:12.487Z,1017.55
2016-07-16T02:34:12.475Z,1017.57
2016-07-16T02:35:12.460Z,1017.56
2016-07-16T02:36:12.450Z,1017.59
2016-07-16T02:37:12.423Z,1017.63
2016-07-16T02:38:12.407Z,1017.59
2016-07-16T02:39:12.462Z,1017.61
2016-07-16T02:40:12.376Z,1017.63
2016-07-16T02:41:12.430Z,1017.64
2016-07-16T02:42:12.350Z,1017.65
2016-07-16T02:43:12.346Z,1017.64
2016-07-16T02:44:12.318Z,1017.62
2016-07-16T02:45:12.367Z,1017.63
2016-07-16T02:46:12.299Z,1017.63
2016-07-16T02:47:12.281Z,1017.65
2016-07-16T02:48:12.260Z,1017.6
2016-07-16T02:49:12.250Z,1017.6
2016-07-16T02:50:12.231Z,1017.59
2016-07-16T02:51:12.218Z,1017.62
2016-07-16T02:52:12.209Z,1017.61
2016-07-16T02:53:12.188Z,1017.58
2016-07-16T02:54:12.175Z,1017.6
2016-07-16T02:55:12.160Z,1017.59
2016-07-16T02:56:12.146Z,1017.56
2016-07-16T02:57:12.131Z,1017.56
2016-07-16T02:58:12.119Z,1017.57
2016-07-16T02:59:12.108Z,1017.55
2016-07-16T03:00:12.088Z,1017.55
2016-07-16T03:01:12.129Z,1017.53
2016-07-16T03:02:12.066Z,1017.53
2016-07-16T03:03:12.044Z,1017.53
2016-07-16T03:04:12.031Z,1017.49
2016-07-16T03:05:12.017Z,1017.52
2016-07-16T03:06:12.000Z,1017.46
2016-07-16T03:07:11.988Z,1017.46
2016-07-16T03:08:11.971Z,1017.46
2016-07-16T03:09:11.957Z,1017.45
2016-07-16T03:10:11.942Z,1017.46
2016-07-16T03:11:11.930Z,1017.45
2016-07-16T03:12:11.913Z,1017.45
2016-07-16T03:13:11.900Z,1017.44
2016-07-16T03:14:11.886Z,1017.47
2016-07-16T03:15:11.874Z,1017.48
2016-07-16T03:16:11.855Z,1017.5
2016-07-16T03:17:11.854Z,1017.49
2016-07-16T03:18:11.830Z,1017.48
2016-07-16T03:19:11.810Z,1017.49
2016-07-16T03:20:11.802Z,1017.46
2016-07-16T03:21:11.788Z,1017.47
2016-07-16T03:22:11.769Z,1017.46
2016-07-16T03:23:11.750Z,1017.43
2016-07-16T03:24:11.739Z,1017.44
2016-07-16T03:25:11.730Z,1017.41
2016-07-16T03:26:11.710Z,1017.41
2016-07-16T03:27:11.699Z,1017.41
2016-07-16T03:28:11.680Z,1017.37
2016-07-16T03:29:11.669Z,1017.37
2016-07-16T03:30:11.649Z,1017.37
2016-07-16T03:31:11.639Z,1017.34
2016-07-16T03:32:11.628Z,1017.33
2016-07-16T03:33:11.612Z,1017.41
2016-07-16T03:34:11.592Z,1017.33
2016-07-16T03:35:11.581Z,1017.34
2016-07-16T03:36:11.565Z,1017.3
2016-07-16T03:37:11.551Z,1017.29
2016-07-16T03:38:11.542Z,1017.27
2016-07-16T03:39:11.523Z,1017.34
2016-07-16T03:40:11.507Z,1017.32
2016-07-16T03:41:11.495Z,1017.4
2016-07-16T03:42:11.479Z,1017.41
2016-07-16T03:43:11.470Z,1017.4
2016-07-16T03:44:11.451Z,1017.4
2016-07-16T03:45:11.439Z,1017.38
2016-07-16T03:46:11.421Z,1017.4
2016-07-16T03:47:11.419Z,1017.46
2016-07-16T03:48:11.391Z,1017.5
2016-07-16T03:49:11.380Z,1017.48
2016-07-16T03:50:11.368Z,1017.48
2016-07-16T03:51:11.349Z,1017.45
2016-07-16T03:52:11.337Z,1017.39
2016-07-16T03:53:11.318Z,1017.39
2016-07-16T03:54:11.310Z,1017.37
2016-07-16T03:55:11.299Z,1017.38
2016-07-16T03:56:11.277Z,1017.32
2016-07-16T03:57:11.266Z,1017.29
2016-07-16T03:58:11.249Z,1017.27
2016-07-16T03:59:11.236Z,1017.32
2016-07-16T04:00:11.219Z,1017.34
2016-07-16T04:01:11.205Z,1017.33
2016-07-16T04:02:11.197Z,1017.37
2016-07-16T04:03:11.178Z,1017.35
2016-07-16T04:04:11.161Z,1017.37
2016-07-16T04:05:11.150Z,1017.38
2016-07-16T04:06:11.140Z,1017.35
2016-07-16T04:07:11.130Z,1017.32
2016-07-16T04:08:11.109Z,1017.36
2016-07-16T04:09:11.097Z,1017.39
2016-07-16T04:10:11.080Z,1017.36
2016-07-16T04:11:11.066Z,1017.36
2016-07-16T04:12:11.050Z,1017.39
2016-07-16T04:13:11.036Z,1017.41
2016-07-16T04:14:11.019Z,1017.41
2016-07-16T04:15:11.007Z,1017.4
2016-07-16T04:16:10.997Z,1017.39
2016-07-16T04:17:10.980Z,1017.42
2016-07-16T04:18:10.969Z,1017.42
2016-07-16T04:19:10.947Z,1017.41
2016-07-16T04:20:10.938Z,1017.42
2016-07-16T04:21:10.927Z,1017.49
2016-07-16T04:22:10.910Z,1017.47
2016-07-16T04:23:10.896Z,1017.46
2016-07-16T04:24:10.890Z,1017.49
2016-07-16T04:25:10.866Z,1017.51
2016-07-16T04:26:10.885Z,1017.54
2016-07-16T04:27:10.837Z,1017.52
2016-07-16T04:28:10.829Z,1017.55
2016-07-16T04:29:10.809Z,1017.53
2016-07-16T04:30:10.808Z,1017.5
2016-07-16T04:31:10.779Z,1017.48
2016-07-16T04:32:10.777Z,1017.45
2016-07-16T04:33:10.755Z,1017.42
2016-07-16T04:34:10.790Z,1017.45
2016-07-16T04:35:10.725Z,1017.42
2016-07-16T04:36:10.757Z,1017.41
2016-07-16T04:37:10.696Z,1017.42
2016-07-16T04:38:10.688Z,1017.4
2016-07-16T04:39:10.669Z,1017.35
2016-07-16T04:40:10.656Z,1017.37
2016-07-16T04:41:10.640Z,1017.35
2016-07-16T04:42:10.623Z,1017.37
2016-07-16T04:43:10.610Z,1017.4
2016-07-16T04:44:10.600Z,1017.37
2016-07-16T04:45:10.588Z,1017.36
2016-07-16T04:46:10.567Z,1017.4
2016-07-16T04:47:10.559Z,1017.39
2016-07-16T04:48:10.540Z,1017.39
2016-07-16T04:49:10.528Z,1017.38
2016-07-16T04:50:10.511Z,1017.4
2016-07-16T04:51:10.500Z,1017.41
2016-07-16T04:52:10.487Z,1017.4
2016-07-16T04:53:10.469Z,1017.4
2016-07-16T04:54:10.458Z,1017.4
2016-07-16T04:55:10.442Z,1017.45
2016-07-16T04:56:10.430Z,1017.46
2016-07-16T04:57:10.417Z,1017.53
2016-07-16T04:58:10.400Z,1017.51
2016-07-16T04:59:10.389Z,1017.51
2016-07-16T05:00:10.380Z,1017.51
2016-07-16T05:01:10.358Z,1017.47
2016-07-16T05:02:10.346Z,1017.49
2016-07-16T05:03:10.331Z,1017.46
2016-07-16T05:04:10.318Z,1017.47
2016-07-16T05:05:10.302Z,1017.48
2016-07-16T05:06:10.290Z,1017.5
2016-07-16T05:07:10.280Z,1017.51
2016-07-16T05:08:10.260Z,1017.54
2016-07-16T05:09:10.250Z,1017.53
2016-07-16T05:10:10.230Z,1017.57
2016-07-16T05:11:10.219Z,1017.55
2016-07-16T05:12:10.200Z,1017.55
2016-07-16T05:13:10.186Z,1017.57
2016-07-16T05:14:10.174Z,1017.55
2016-07-16T05:15:10.160Z,1017.56
2016-07-16T05:16:10.146Z,1017.55
2016-07-16T05:17:10.128Z,1017.59
2016-07-16T05:18:10.120Z,1017.57
2016-07-16T05:19:10.100Z,1017.55
2016-07-16T05:20:10.087Z,1017.49
2016-07-16T05:21:10.080Z,1017.54
2016-07-16T05:22:10.060Z,1017.54
2016-07-16T05:23:10.046Z,1017.51
2016-07-16T05:24:10.031Z,1017.54
2016-07-16T05:25:10.018Z,1017.54
2016-07-16T05:26:10.002Z,1017.53
2016-07-16T05:27:09.990Z,1017.53
2016-07-16T05:28:09.979Z,1017.55
2016-07-16T05:29:09.961Z,1017.49
2016-07-16T05:30:09.949Z,1017.48
2016-07-16T05:31:09.941Z,1017.49
2016-07-16T05:32:09.920Z,1017.49
2016-07-16T05:33:09.907Z,1017.53
2016-07-16T05:34:09.898Z,1017.46
2016-07-16T05:35:09.876Z,1017.47
2016-07-16T05:36:09.865Z,1017.5
2016-07-16T05:37:09.850Z,1017.49
2016-07-16T05:38:09.839Z,1017.5
2016-07-16T05:39:09.824Z,1017.47
2016-07-16T05:40:09.808Z,1017.49
2016-07-16T05:41:09.800Z,1017.47
2016-07-16T05:42:09.779Z,1017.48
2016-07-16T05:43:09.770Z,1017.47
2016-07-16T05:44:09.750Z,1017.5
2016-07-16T05:45:09.738Z,1017.54
2016-07-16T05:46:09.731Z,1017.54
2016-07-16T05:47:09.718Z,1017.53
2016-07-16T05:48:09.708Z,1017.54
2016-07-16T05:49:09.688Z,1017.53
2016-07-16T05:50:09.677Z,1017.55
2016-07-16T05:51:09.658Z,1017.52
2016-07-16T05:52:09.650Z,1017.51
2016-07-16T05:53:09.631Z,1017.53
2016-07-16T05:54:09.620Z,1017.53
2016-07-16T05:55:09.603Z,1017.52
2016-07-16T05:56:09.590Z,1017.53
2016-07-16T05:57:09.575Z,1017.55
2016-07-16T05:58:09.561Z,1017.55
2016-07-16T05:59:09.549Z,1017.55
2016-07-16T06:00:09.540Z,1017.54
2016-07-16T06:01:09.521Z,1017.52
2016-07-16T06:02:09.511Z,1017.49
2016-07-16T06:03:09.493Z,1017.47
2016-07-16T06:04:09.476Z,1017.49
2016-07-16T06:05:09.469Z,1017.49
2016-07-16T06:06:09.460Z,1017.47
2016-07-16T06:07:09.447Z,1017.49
2016-07-16T06:08:09.429Z,1017.5
2016-07-16T06:09:09.420Z,1017.54
2016-07-16T06:10:09.401Z,1017.56
2016-07-16T06:11:09.389Z,1017.53
2016-07-16T06:12:09.374Z,1017.58
2016-07-16T06:13:09.360Z,1017.59
2016-07-16T06:14:09.347Z,1017.61
2016-07-16T06:15:09.336Z,1017.66
2016-07-16T06:16:09.320Z,1017.66
2016-07-16T06:17:09.307Z,1017.65
2016-07-16T06:18:09.295Z,1017.66
2016-07-16T06:19:09.277Z,1017.67
2016-07-16T06:20:09.267Z,1017.63
2016-07-16T06:21:09.255Z,1017.64
2016-07-16T06:22:09.240Z,1017.62
2016-07-16T06:23:09.229Z,1017.59
2016-07-16T06:24:09.218Z,1017.58
2016-07-16T06:25:09.199Z,1017.5
2016-07-16T06:26:09.184Z,1017.49
2016-07-16T06:27:09.179Z,1017.45
2016-07-16T06:28:09.159Z,1017.47
2016-07-16T06:29:09.141Z,1017.47
2016-07-16T06:30:09.139Z,1017.42
2016-07-16T06:31:09.119Z,1017.43
2016-07-16T06:32:09.108Z,1017.43
2016-07-16T06:33:09.091Z,1017.39
2016-07-16T06:34:09.081Z,1017.34
2016-07-16T06:35:09.067Z,1017.29
2016-07-16T06:36:09.070Z,1017.3
2016-07-16T06:37:09.040Z,1017.31
2016-07-16T06:38:09.027Z,1017.27
2016-07-16T06:39:09.014Z,1017.38
2016-07-16T06:40:08.998Z,1017.36
2016-07-16T06:41:08.987Z,1017.38
2016-07-16T06:42:08.978Z,1017.42
2016-07-16T06:43:08.968Z,1017.43
2016-07-16T06:44:08.946Z,1017.46
2016-07-16T06:45:08.936Z,1017.45
2016-07-16T06:46:08.930Z,1017.45
2016-07-16T06:47:08.909Z,1017.46
2016-07-16T06:48:08.898Z,1017.45
2016-07-16T06:49:08.897Z,1017.48
2016-07-16T06:50:08.875Z,1017.48
2016-07-16T06:51:08.859Z,1017.48
2016-07-16T06:52:08.859Z,1017.49
2016-07-16T06:53:08.838Z,1017.47
2016-07-16T06:54:08.823Z,1017.51
2016-07-16T06:55:08.811Z,1017.56
2016-07-16T06:56:08.800Z,1017.49
2016-07-16T06:57:08.780Z,1017.52
2016-07-16T06:58:08.781Z,1017.5
2016-07-16T06:59:08.760Z,1017.48
2016-07-16T07:00:08.748Z,1017.54
2016-07-16T07:01:08.729Z,1017.52
2016-07-16T07:02:08.715Z,1017.5
2016-07-16T07:03:08.709Z,1017.53
2016-07-16T07:04:08.690Z,1017.5
2016-07-16T07:05:08.680Z,1017.47
2016-07-16T07:06:08.666Z,1017.47
2016-07-16T07:07:08.650Z,1017.5
2016-07-16T07:08:08.646Z,1017.49
2016-07-16T07:09:08.629Z,1017.48
2016-07-16T07:10:08.621Z,1017.5
2016-07-16T07:11:08.597Z,1017.49
2016-07-16T07:12:08.618Z,1017.48
2016-07-16T07:13:08.572Z,1017.5
2016-07-16T07:14:08.569Z,1017.51
2016-07-16T07:15:08.549Z,1017.49
2016-07-16T07:16:08.538Z,1017.47
2016-07-16T07:17:08.519Z,1017.49
2016-07-16T07:18:08.509Z,1017.54
2016-07-16T07:19:08.497Z,1017.52
2016-07-16T07:20:08.533Z,1017.56
2016-07-16T07:21:08.470Z,1017.53
2016-07-16T07:22:08.462Z,1017.54
2016-07-16T07:23:08.447Z,1017.61
2016-07-16T07:24:08.429Z,1017.59
2016-07-16T07:25:08.420Z,1017.58
2016-07-16T07:26:08.405Z,1017.57
2016-07-16T07:27:08.396Z,1017.59
2016-07-16T07:28:08.377Z,1017.56
2016-07-16T07:29:08.367Z,1017.6
2016-07-16T07:30:08.362Z,1017.55
2016-07-16T07:31:08.340Z,1017.56
2016-07-16T07:32:08.329Z,1017.59
2016-07-16T07:33:08.322Z,1017.55
2016-07-16T07:34:08.303Z,1017.6
2016-07-16T07:35:08.359Z,1017.63
2016-07-16T07:36:08.280Z,1017.55
2016-07-16T07:37:08.268Z,1017.57
2016-07-16T07:38:08.248Z,1017.6
2016-07-16T07:39:08.246Z,1017.58
2016-07-16T07:40:08.231Z,1017.57
2016-07-16T07:41:08.209Z,1017.57
2016-07-16T07:42:08.202Z,1017.52
2016-07-16T07:43:08.183Z,1017.52
2016-07-16T07:44:08.171Z,1017.5
2016-07-16T07:45:08.160Z,1017.48
2016-07-16T07:46:08.151Z,1017.46
2016-07-16T07:47:08.131Z,1017.5
2016-07-16T07:48:08.121Z,1017.49
2016-07-16T07:49:08.107Z,1017.5
2016-07-16T07:50:08.101Z,1017.46
2016-07-16T07:51:08.080Z,1017.44
2016-07-16T07:52:08.067Z,1017.47
2016-07-16T07:53:08.056Z,1017.49
2016-07-16T07:54:08.040Z,1017.44
2016-07-16T07:55:08.028Z,1017.41
2016-07-16T07:56:08.020Z,1017.44
2016-07-16T07:57:07.996Z,1017.49
2016-07-16T07:58:07.989Z,1017.49
2016-07-16T07:59:07.978Z,1017.46
2016-07-16T08:00:07.966Z,1017.42
2016-07-16T08:01:07.949Z,1017.45
2016-07-16T08:02:07.934Z,1017.45
2016-07-16T08:03:07.922Z,1017.47
2016-07-16T08:04:07.910Z,1017.4
2016-07-16T08:05:07.901Z,1017.41
2016-07-16T08:06:07.890Z,1017.45
2016-07-16T08:07:07.868Z,1017.41
2016-07-16T08:08:07.861Z,1017.38
2016-07-16T08:09:07.850Z,1017.44
2016-07-16T08:10:07.828Z,1017.44
2016-07-16T08:11:07.820Z,1017.45
2016-07-16T08:12:07.804Z,1017.47
2016-07-16T08:13:07.787Z,1017.44
2016-07-16T08:14:07.782Z,1017.48
2016-07-16T08:15:07.775Z,1017.46
2016-07-16T08:16:07.758Z,1017.43
2016-07-16T08:17:07.741Z,1017.44
2016-07-16T08:18:07.731Z,1017.49
2016-07-16T08:19:07.713Z,1017.47
2016-07-16T08:20:07.710Z,1017.49
2016-07-16T08:21:07.688Z,1017.48
2016-07-16T08:22:07.681Z,1017.55
2016-07-16T08:23:07.667Z,1017.5
2016-07-16T08:24:07.651Z,1017.47
2016-07-16T08:25:07.640Z,1017.49
2016-07-16T08:26:07.634Z,1017.52
2016-07-16T08:27:07.615Z,1017.54
2016-07-16T08:28:07.599Z,1017.59
2016-07-16T08:29:07.591Z,1017.56
2016-07-16T08:30:07.572Z,1017.53
2016-07-16T08:31:07.565Z,1017.54
2016-07-16T08:32:07.548Z,1017.55
2016-07-16T08:33:07.538Z,1017.5
2016-07-16T08:34:07.526Z,1017.53
2016-07-16T08:35:07.516Z,1017.49
2016-07-16T08:36:07.498Z,1017.55
2016-07-16T08:37:07.491Z,1017.51
2016-07-16T08:38:07.474Z,1017.56
2016-07-16T08:39:07.460Z,1017.55
2016-07-16T08:40:07.448Z,1017.55
2016-07-16T08:41:07.434Z,1017.56
2016-07-16T08:42:07.420Z,1017.56
2016-07-16T08:43:07.407Z,1017.6
2016-07-16T08:44:07.400Z,1017.5
2016-07-16T08:45:07.378Z,1017.56
2016-07-16T08:46:07.367Z,1017.59
2016-07-16T08:47:07.358Z,1017.57
2016-07-16T08:48:07.346Z,1017.59
2016-07-16T08:49:07.331Z,1017.59
2016-07-16T08:50:07.320Z,1017.56
2016-07-16T08:51:07.308Z,1017.62
2016-07-16T08:52:07.301Z,1017.58
2016-07-16T08:53:07.281Z,1017.55
2016-07-16T08:54:07.270Z,1017.59
2016-07-16T08:55:07.258Z,1017.55
2016-07-16T08:56:07.243Z,1017.55
2016-07-16T08:57:07.227Z,1017.57
2016-07-16T08:58:07.218Z,1017.55
2016-07-16T08:59:07.207Z,1017.59
2016-07-16T09:00:07.199Z,1017.57
2016-07-16T09:01:07.178Z,1017.53
2016-07-16T09:02:07.169Z,1017.56
2016-07-16T09:03:07.160Z,1017.57
2016-07-16T09:04:07.141Z,1017.58
2016-07-16T09:05:07.129Z,1017.6
2016-07-16T09:06:07.122Z,1017.61
2016-07-16T09:07:07.103Z,1017.56
2016-07-16T09:08:07.091Z,1017.55
2016-07-16T09:09:07.081Z,1017.55
2016-07-16T09:10:07.070Z,1017.57
2016-07-16T09:11:07.058Z,1017.56
2016-07-16T09:12:07.042Z,1017.61
2016-07-16T09:13:07.031Z,1017.55
2016-07-16T09:14:07.015Z,1017.62
2016-07-16T09:15:07.010Z,1017.59
2016-07-16T09:16:07.003Z,1017.61
2016-07-16T09:17:06.979Z,1017.59
2016-07-16T09:18:06.968Z,1017.62
2016-07-16T09:19:06.962Z,1017.62
2016-07-16T09:20:06.944Z,1017.61
2016-07-16T09:21:06.933Z,1017.61
2016-07-16T09:22:06.918Z,1017.62
2016-07-16T09:23:06.908Z,1017.61
2016-07-16T09:24:06.897Z,1017.59
2016-07-16T09:25:06.884Z,1017.59
2016-07-16T09:26:06.870Z,1017.56
2016-07-16T09:27:06.858Z,1017.6
2016-07-16T09:28:06.851Z,1017.65
2016-07-16T09:29:06.837Z,1017.6
2016-07-16T09:30:06.831Z,1017.57
2016-07-16T09:31:06.812Z,1017.6
2016-07-16T09:32:06.808Z,1017.6
2016-07-16T09:33:06.793Z,1017.63
2016-07-16T09:34:06.805Z,1017.62
2016-07-16T09:35:06.766Z,1017.61
2016-07-16T09:36:06.750Z,1017.61
2016-07-16T09:37:06.744Z,1017.65
2016-07-16T09:38:06.759Z,1017.67
2016-07-16T09:39:06.720Z,1017.69
2016-07-16T09:40:06.704Z,1017.66
2016-07-16T09:41:06.700Z,1017.65
2016-07-16T09:42:06.683Z,1017.59
2016-07-16T09:43:06.666Z,1017.61
2016-07-16T09:44:06.659Z,1017.57
2016-07-16T09:45:06.641Z,1017.59
2016-07-16T09:46:06.683Z,1017.64
2016-07-16T09:47:06.617Z,1017.56
2016-07-16T09:48:06.610Z,1017.59
2016-07-16T09:49:06.593Z,1017.68
2016-07-16T09:50:06.590Z,1017.62
2016-07-16T09:51:06.574Z,1017.64
2016-07-16T09:52:06.560Z,1017.61
2016-07-16T09:53:06.547Z,1017.67
2016-07-16T09:54:06.542Z,1017.64
2016-07-16T09:55:06.526Z,1017.66
2016-07-16T09:56:06.513Z,1017.63
2016-07-16T09:57:06.500Z,1017.65
2016-07-16T09:58:06.502Z,1017.69
2016-07-16T09:59:06.476Z,1017.69
2016-07-16T10:00:06.462Z,1017.69
2016-07-16T10:01:06.452Z,1017.69
2016-07-16T10:02:06.441Z,1017.65
2016-07-16T10:03:06.433Z,1017.62
2016-07-16T10:04:06.419Z,1017.64
2016-07-16T10:05:06.407Z,1017.66
2016-07-16T10:06:06.403Z,1017.63
2016-07-16T10:07:06.382Z,1017.64
2016-07-16T10:08:06.372Z,1017.6
2016-07-16T10:09:06.360Z,1017.66
2016-07-16T10:10:06.347Z,1017.71
2016-07-16T10:11:06.334Z,1017.66
2016-07-16T10:12:06.320Z,1017.68
2016-07-16T10:13:06.312Z,1017.65
2016-07-16T10:14:06.301Z,1017.63
2016-07-16T10:15:06.290Z,1017.61
2016-07-16T10:16:06.279Z,1017.63
2016-07-16T10:17:06.267Z,1017.64
2016-07-16T10:18:06.261Z,1017.66
2016-07-16T10:19:06.251Z,1017.62
2016-07-16T10:20:06.228Z,1017.62
2016-07-16T10:21:06.223Z,1017.63
2016-07-16T10:22:06.213Z,1017.66
2016-07-16T10:23:06.202Z,1017.62
2016-07-16T10:24:06.190Z,1017.7
2016-07-16T10:25:06.171Z,1017.69
2016-07-16T10:26:06.162Z,1017.66
2016-07-16T10:27:06.152Z,1017.71
2016-07-16T10:28:06.139Z,1017.69
2016-07-16T10:29:06.133Z,1017.69
2016-07-16T10:30:06.123Z,1017.68
2016-07-16T10:31:06.103Z,1017.71
2016-07-16T10:32:06.103Z,1017.72
2016-07-16T10:33:06.087Z,1017.71
2016-07-16T10:34:06.079Z,1017.7
2016-07-16T10:35:06.060Z,1017.72
2016-07-16T10:36:06.050Z,1017.77
2016-07-16T10:37:06.042Z,1017.77
2016-07-16T10:38:06.033Z,1017.8
2016-07-16T10:39:06.039Z,1017.75
2016-07-16T10:40:06.005Z,1017.76
2016-07-16T10:41:06.003Z,1017.73
2016-07-16T10:42:05.981Z,1017.74
2016-07-16T10:43:05.970Z,1017.74
2016-07-16T10:44:05.966Z,1017.71
2016-07-16T10:45:05.950Z,1017.72
2016-07-16T10:46:05.939Z,1017.73
2016-07-16T10:47:05.929Z,1017.71
2016-07-16T10:48:05.924Z,1017.7
2016-07-16T10:49:05.909Z,1017.68
2016-07-16T10:50:05.913Z,1017.67
2016-07-16T10:51:05.882Z,1017.65
2016-07-16T10:52:05.870Z,1017.63
2016-07-16T10:53:05.859Z,1017.65
2016-07-16T10:54:05.861Z,1017.65
2016-07-16T10:55:05.840Z,1017.64
2016-07-16T10:56:05.827Z,1017.65
2016-07-16T10:57:05.822Z,1017.69
2016-07-16T10:58:05.808Z,1017.64
2016-07-16T10:59:05.802Z,1017.68
2016-07-16T11:00:05.786Z,1017.68
2016-07-16T11:01:05.769Z,1017.72
2016-07-16T11:02:05.762Z,1017.72
2016-07-16T11:03:05.750Z,1017.74
2016-07-16T11:04:05.740Z,1017.74
2016-07-16T11:05:05.729Z,1017.75
2016-07-16T11:06:05.718Z,1017.77
2016-07-16T11:07:05.710Z,1017.83
2016-07-16T11:08:05.699Z,1017.82
2016-07-16T11:09:05.691Z,1017.87
2016-07-16T11:10:05.677Z,1017.8
2016-07-16T11:11:05.669Z,1017.79
2016-07-16T11:12:05.657Z,1017.83
2016-07-16T11:13:05.652Z,1017.81
2016-07-16T11:14:05.644Z,1017.78
2016-07-16T11:15:05.624Z,1017.77
2016-07-16T11:16:05.623Z,1017.73
2016-07-16T11:17:05.618Z,1017.72
2016-07-16T11:18:05.589Z,1017.76
2016-07-16T11:19:05.578Z,1017.71
2016-07-16T11:20:05.581Z,1017.76
2016-07-16T11:21:05.563Z,1017.75
2016-07-16T11:22:05.550Z,1017.76
2016-07-16T11:23:05.540Z,1017.75
2016-07-16T11:24:05.529Z,1017.76
2016-07-16T11:25:05.517Z,1017.79
2016-07-16T11:26:05.509Z,1017.84
2016-07-16T11:27:05.505Z,1017.82
2016-07-16T11:28:05.494Z,1017.83
2016-07-16T11:29:05.487Z,1017.83
2016-07-16T11:30:05.468Z,1017.82
2016-07-16T11:31:05.460Z,1017.8
2016-07-16T11:32:05.452Z,1017.83
2016-07-16T11:33:05.442Z,1017.84
2016-07-16T11:34:05.431Z,1017.8
2016-07-16T11:35:05.418Z,1017.79
2016-07-16T11:36:05.409Z,1017.82
2016-07-16T11:37:05.399Z,1017.84
2016-07-16T11:38:05.386Z,1017.79
2016-07-16T11:39:05.378Z,1017.8
2016-07-16T11:40:05.365Z,1017.77
2016-07-16T11:41:05.358Z,1017.83
2016-07-16T11:42:05.348Z,1017.8
2016-07-16T11:43:05.339Z,1017.78
2016-07-16T11:44:05.329Z,1017.82
2016-07-16T11:45:05.309Z,1017.81
2016-07-16T11:46:05.303Z,1017.81
2016-07-16T11:47:05.296Z,1017.81
2016-07-16T11:48:05.280Z,1017.79
2016-07-16T11:49:05.273Z,1017.82
2016-07-16T11:50:05.271Z,1017.78
2016-07-16T11:51:05.251Z,1017.78
2016-07-16T11:52:05.239Z,1017.81
2016-07-16T11:53:05.231Z,1017.81
2016-07-16T11:54:05.219Z,1017.82
2016-07-16T11:55:05.219Z,1017.85
2016-07-16T11:56:05.203Z,1017.77
2016-07-16T11:57:05.191Z,1017.76
2016-07-16T11:58:05.177Z,1017.79
2016-07-16T11:59:05.174Z,1017.78
2016-07-16T12:00:05.159Z,1017.8
2016-07-16T12:01:05.151Z,1017.76
2016-07-16T12:02:05.142Z,1017.77
2016-07-16T12:03:05.132Z,1017.78
2016-07-16T12:04:05.142Z,1017.74
2016-07-16T12:05:05.109Z,1017.75
2016-07-16T12:06:05.102Z,1017.75
2016-07-16T12:07:05.087Z,1017.75
2016-07-16T12:08:05.079Z,1017.76